createdAt,value
2019-05-18T00:02:12.417Z,88.10
2019-05-18T00:04:40.130Z,88.50
2019-05-18T00:07:07.823Z,88.90
2019-05-18T00:09:35.484Z,89.20
2019-05-18T00:12:03.423Z,90.00
2019-05-18T00:14:31.118Z,90.10
2019-05-18T00:16:58.874Z,90.10
2019-05-18T00:19:26.898Z,90.20
2019-05-18T00:21:54.750Z,90.40
2019-05-18T00:24:22.646Z,90.40
2019-05-18T00:26:50.448Z,90.50
2019-05-18T00:29:18.500Z,90.50
2019-05-18T00:31:46.358Z,90.50
2019-05-18T00:34:14.067Z,90.40
2019-05-18T00:36:41.715Z,90.50
2019-05-18T00:39:09.813Z,90.40
2019-05-18T00:41:37.695Z,90.30
2019-05-18T00:44:05.377Z,90.30
2019-05-18T00:46:33.134Z,90.50
2019-05-18T00:49:01.114Z,90.60
2019-05-18T00:51:28.752Z,90.50
2019-05-18T00:53:56.379Z,90.70
2019-05-18T00:56:24.502Z,90.70
2019-05-18T00:58:52.338Z,90.80
2019-05-18T01:01:20.306Z,90.70
2019-05-18T01:03:48.086Z,90.60
2019-05-18T01:06:15.794Z,90.50
2019-05-18T01:08:43.551Z,90.30
2019-05-18T01:11:11.381Z,90.00
2019-05-18T01:13:39.148Z,89.90
2019-05-18T01:16:06.855Z,89.80
2019-05-18T01:18:35.231Z,90.10
2019-05-18T01:21:03.094Z,90.10
2019-05-18T01:23:30.836Z,90.00
2019-05-18T01:25:58.777Z,90.00
2019-05-18T01:28:26.643Z,90.00
2019-05-18T01:30:54.354Z,90.00
2019-05-18T01:33:23.209Z,90.10
2019-05-18T01:35:50.946Z,90.20
2019-05-18T01:38:20.086Z,90.10
2019-05-18T01:40:47.964Z,90.60
2019-05-18T01:43:15.679Z,90.00
2019-05-18T01:45:43.808Z,90.20
2019-05-18T01:48:14.449Z,90.20
2019-05-18T01:50:41.183Z,90.30
2019-05-18T01:53:09.017Z,89.50
2019-05-18T01:55:36.665Z,89.30
2019-05-18T01:58:04.435Z,89.40
2019-05-18T02:00:32.058Z,89.40
2019-05-18T02:02:59.709Z,89.00
2019-05-18T02:05:27.418Z,88.50
2019-05-18T02:07:55.109Z,88.20
2019-05-18T02:10:22.814Z,88.50
2019-05-18T02:12:50.804Z,88.20
2019-05-18T02:15:18.615Z,88.30
2019-05-18T02:17:46.397Z,88.20
2019-05-18T02:20:14.849Z,88.40
2019-05-18T02:22:42.597Z,89.10
2019-05-18T02:25:10.656Z,89.40
2019-05-18T02:27:38.463Z,89.60
2019-05-18T02:30:07.094Z,90.00
2019-05-18T02:32:34.791Z,89.70
2019-05-18T02:35:02.634Z,89.90
2019-05-18T02:37:30.260Z,89.50
2019-05-18T02:39:57.947Z,89.60
2019-05-18T02:42:25.747Z,90.00
2019-05-18T02:44:53.444Z,89.80
2019-05-18T02:47:21.190Z,89.90
2019-05-18T02:49:49.014Z,89.80
2019-05-18T02:52:16.763Z,90.00
2019-05-18T02:54:44.402Z,90.10
2019-05-18T02:57:12.160Z,90.10
2019-05-18T02:59:39.819Z,90.10
2019-05-18T03:02:07.655Z,90.00
2019-05-18T03:04:35.419Z,90.10
2019-05-18T03:07:03.140Z,90.20
2019-05-18T03:09:31.852Z,90.50
2019-05-18T03:11:59.644Z,90.60
2019-05-18T03:14:27.406Z,90.60
2019-05-18T03:16:55.245Z,90.30
2019-05-18T03:19:23.097Z,90.50
2019-05-18T03:21:50.829Z,90.60
2019-05-18T03:24:18.749Z,90.60
2019-05-18T03:26:46.414Z,90.60
2019-05-18T03:29:14.477Z,90.50
2019-05-18T03:31:42.172Z,90.10
2019-05-18T03:34:09.893Z,90.20
2019-05-18T03:36:37.684Z,90.50
2019-05-18T03:39:05.617Z,90.30
2019-05-18T03:41:33.384Z,90.40
2019-05-18T03:44:01.366Z,90.40
2019-05-18T03:46:28.980Z,90.50
2019-05-18T03:48:56.680Z,90.50
2019-05-18T03:51:26.904Z,90.60
2019-05-18T03:53:57.116Z,90.50
2019-05-18T03:56:24.880Z,90.40
2019-05-18T03:58:52.695Z,90.60
2019-05-18T04:01:20.335Z,90.70
2019-05-18T04:03:48.212Z,90.80
2019-05-18T04:06:17.095Z,90.90
2019-05-18T04:08:44.858Z,91.20
2019-05-18T04:11:12.654Z,91.20
2019-05-18T04:13:40.590Z,91.00
2019-05-18T04:16:08.257Z,91.00
2019-05-18T04:18:35.935Z,91.10
2019-05-18T04:21:06.988Z,91.20
2019-05-18T04:23:34.697Z,91.10
2019-05-18T04:26:02.838Z,91.10
2019-05-18T04:28:30.689Z,91.00
2019-05-18T04:30:58.427Z,91.00
2019-05-18T04:33:26.135Z,90.70
2019-05-18T04:35:53.838Z,90.50
2019-05-18T04:38:21.558Z,90.30
2019-05-18T04:40:49.245Z,90.00
2019-05-18T04:43:16.936Z,90.00
2019-05-18T04:45:44.902Z,89.40
2019-05-18T04:48:13.140Z,89.40
2019-05-18T04:50:40.870Z,89.60
2019-05-18T04:53:08.740Z,89.60
2019-05-18T04:55:36.432Z,90.00
2019-05-18T04:58:04.269Z,90.10
2019-05-18T05:00:32.997Z,90.20
2019-05-18T05:03:00.701Z,90.10
2019-05-18T05:05:28.366Z,90.20
2019-05-18T05:07:56.609Z,90.10
2019-05-18T05:10:24.454Z,90.00
2019-05-18T05:12:53.321Z,90.00
2019-05-18T05:15:22.168Z,90.00
2019-05-18T05:17:49.842Z,89.90
2019-05-18T05:20:20.040Z,90.20
2019-05-18T05:22:47.225Z,90.20
2019-05-18T05:25:14.879Z,90.20
2019-05-18T05:27:42.570Z,90.00
2019-05-18T05:30:11.024Z,90.10
2019-05-18T05:32:38.960Z,90.00
2019-05-18T05:35:08.022Z,90.00
2019-05-18T05:37:36.226Z,89.80
2019-05-18T05:40:10.147Z,89.60
2019-05-18T05:42:38.544Z,89.50
2019-05-18T05:45:17.465Z,89.30
2019-05-18T05:47:45.183Z,89.30
2019-05-18T05:50:13.006Z,88.90
2019-05-18T05:52:40.900Z,89.40
2019-05-18T05:55:09.153Z,89.50
2019-05-18T05:57:36.904Z,89.30
2019-05-18T06:00:05.167Z,90.00
2019-05-18T06:02:32.796Z,89.90
2019-05-18T06:05:02.077Z,89.40
2019-05-18T06:07:30.060Z,87.80
2019-05-18T06:09:57.876Z,87.70
2019-05-18T06:12:25.664Z,88.00
2019-05-18T06:14:56.051Z,87.70
2019-05-18T06:17:23.881Z,87.70
2019-05-18T06:19:52.006Z,87.30
2019-05-18T06:22:19.849Z,88.00
2019-05-18T06:24:50.581Z,86.50
2019-05-18T06:27:18.360Z,85.00
2019-05-18T06:29:47.052Z,85.10
2019-05-18T06:32:14.726Z,84.30
2019-05-18T06:34:42.438Z,83.80
2019-05-18T06:37:11.787Z,83.30
2019-05-18T06:39:39.923Z,83.70
2019-05-18T06:42:10.765Z,83.00
2019-05-18T06:44:37.905Z,82.90
2019-05-18T06:47:06.894Z,83.10
2019-05-18T06:49:34.814Z,83.50
2019-05-18T06:52:02.736Z,84.20
2019-05-18T06:54:30.567Z,84.20
2019-05-18T06:56:59.623Z,84.20
2019-05-18T06:59:27.958Z,83.80
2019-05-18T07:01:56.179Z,83.10
2019-05-18T07:04:24.717Z,82.70
2019-05-18T07:06:52.853Z,82.10
2019-05-18T07:09:20.740Z,81.70
2019-05-18T07:11:48.544Z,82.10
2019-05-18T07:14:25.390Z,80.80
2019-05-18T07:16:46.629Z,80.70
2019-05-18T07:19:14.337Z,80.20
2019-05-18T07:21:42.010Z,79.10
2019-05-18T07:24:09.770Z,80.10
2019-05-18T07:26:37.475Z,79.00
2019-05-18T07:29:05.854Z,78.30
2019-05-18T07:31:33.904Z,77.60
2019-05-18T07:34:01.662Z,77.30
2019-05-18T07:36:29.414Z,77.30
2019-05-18T07:38:57.263Z,76.30
2019-05-18T07:41:25.160Z,76.10
2019-05-18T07:43:53.078Z,75.50
2019-05-18T07:46:20.888Z,75.60
2019-05-18T07:48:48.572Z,75.30
2019-05-18T07:51:16.400Z,75.10
2019-05-18T07:53:44.047Z,74.10
2019-05-18T07:56:12.056Z,74.00
2019-05-18T07:58:39.907Z,74.40
2019-05-18T08:01:07.801Z,74.10
2019-05-18T08:03:35.584Z,72.80
2019-05-18T08:06:03.265Z,72.90
2019-05-18T08:08:31.139Z,73.00
2019-05-18T08:10:58.759Z,72.30
2019-05-18T08:13:26.691Z,71.20
2019-05-18T08:15:54.359Z,71.70
2019-05-18T08:18:21.990Z,71.20
2019-05-18T08:20:49.713Z,69.90
2019-05-18T08:23:17.350Z,69.60
2019-05-18T08:25:45.067Z,69.60
2019-05-18T08:28:12.844Z,69.30
2019-05-18T08:30:41.383Z,68.70
2019-05-18T08:33:09.345Z,68.10
2019-05-18T08:35:37.057Z,67.90
2019-05-18T08:38:06.145Z,64.90
2019-05-18T08:40:34.283Z,64.40
2019-05-18T08:43:02.109Z,64.80
2019-05-18T08:45:30.400Z,65.00
2019-05-18T08:47:58.442Z,65.70
2019-05-18T08:50:26.172Z,65.60
2019-05-18T08:52:54.016Z,65.40
2019-05-18T08:55:21.746Z,61.20
2019-05-18T08:57:49.631Z,60.70
2019-05-18T09:00:20.823Z,63.80
2019-05-18T09:02:48.724Z,64.70
2019-05-18T09:05:54.316Z,65.40
2019-05-18T09:08:22.682Z,65.80
2019-05-18T09:10:50.490Z,64.70
2019-05-18T09:13:20.461Z,64.80
2019-05-18T09:15:48.312Z,64.40
2019-05-18T09:18:16.397Z,63.90
2019-05-18T09:20:44.280Z,64.20
2019-05-18T09:23:12.181Z,62.90
2019-05-18T09:25:39.842Z,62.50
2019-05-18T09:28:07.699Z,63.30
2019-05-18T09:30:35.562Z,62.10
2019-05-18T09:33:03.544Z,60.80
2019-05-18T09:35:31.372Z,61.50
2019-05-18T09:37:59.180Z,60.20
2019-05-18T09:40:27.697Z,60.10
2019-05-18T09:42:55.650Z,60.10
2019-05-18T09:45:26.174Z,59.40
2019-05-18T09:47:54.178Z,59.50
2019-05-18T09:50:22.255Z,58.90
2019-05-18T09:52:50.272Z,59.30
2019-05-18T09:55:18.269Z,58.90
2019-05-18T09:57:46.827Z,57.60
2019-05-18T10:00:15.262Z,57.90
2019-05-18T10:02:43.082Z,58.00
2019-05-18T10:05:11.411Z,57.80
2019-05-18T10:07:41.314Z,58.10
2019-05-18T10:10:11.551Z,58.20
2019-05-18T10:12:39.631Z,58.30
2019-05-18T10:15:08.934Z,57.50
2019-05-18T10:17:39.438Z,58.10
2019-05-18T10:20:07.734Z,58.40
2019-05-18T10:22:35.754Z,58.70
2019-05-18T10:25:03.580Z,58.30
2019-05-18T10:27:32.490Z,58.90
2019-05-18T10:30:00.261Z,58.60
2019-05-18T10:32:28.979Z,58.40
2019-05-18T10:34:56.728Z,57.50
2019-05-18T10:37:24.463Z,57.00
2019-05-18T10:39:52.170Z,56.90
2019-05-18T10:42:20.102Z,57.40
2019-05-18T10:44:47.883Z,57.20
2019-05-18T10:47:15.471Z,57.10
2019-05-18T10:49:43.551Z,56.80
2019-05-18T10:52:11.392Z,56.20
2019-05-18T10:54:39.278Z,55.60
2019-05-18T10:57:07.107Z,55.70
2019-05-18T10:59:34.918Z,54.80
2019-05-18T11:02:02.787Z,54.60
2019-05-18T11:04:30.925Z,54.00
2019-05-18T11:06:58.976Z,54.10
2019-05-18T11:09:27.063Z,53.20
2019-05-18T11:11:54.835Z,52.90
2019-05-18T11:14:22.638Z,51.10
2019-05-18T11:16:50.429Z,50.90
2019-05-18T11:19:18.139Z,45.90
2019-05-18T11:21:45.855Z,44.20
2019-05-18T11:24:13.870Z,41.10
2019-05-18T11:26:41.965Z,38.30
2019-05-18T11:29:09.709Z,38.10
2019-05-18T11:31:53.052Z,37.30
2019-05-18T11:34:20.945Z,37.10
2019-05-18T11:36:48.697Z,37.10
2019-05-18T11:39:16.364Z,36.90
2019-05-18T11:41:44.224Z,36.20
2019-05-18T11:44:12.225Z,36.40
2019-05-18T11:46:40.084Z,36.90
2019-05-18T11:49:08.029Z,37.10
2019-05-18T11:51:35.867Z,37.10
2019-05-18T11:54:04.048Z,36.80
2019-05-18T11:56:31.860Z,35.40
2019-05-18T11:58:59.965Z,34.20
2019-05-18T12:01:27.799Z,37.10
2019-05-18T12:03:55.927Z,38.40
2019-05-18T12:06:23.643Z,36.70
2019-05-18T12:08:51.514Z,36.50
2019-05-18T12:11:19.680Z,37.30
2019-05-18T12:13:47.725Z,38.30
2019-05-18T12:16:17.567Z,38.60
2019-05-18T12:18:45.362Z,38.50
2019-05-18T12:21:13.022Z,38.60
2019-05-18T12:23:40.817Z,39.00
2019-05-18T12:26:08.751Z,39.50
2019-05-18T12:28:36.567Z,39.70
2019-05-18T12:31:04.452Z,38.50
2019-05-18T12:33:33.651Z,38.20
2019-05-18T12:36:01.604Z,38.60
2019-05-18T12:38:29.388Z,38.20
2019-05-18T12:40:57.260Z,36.90
2019-05-18T12:43:25.327Z,36.40
2019-05-18T12:45:53.106Z,36.90
2019-05-18T12:48:21.065Z,37.00
2019-05-18T12:50:48.725Z,36.40
2019-05-18T12:53:17.729Z,36.40
2019-05-18T12:55:45.939Z,36.60
2019-05-18T12:58:13.655Z,37.20
2019-05-18T13:00:41.307Z,37.30
2019-05-18T13:03:09.104Z,36.30
2019-05-18T13:05:36.781Z,35.90
2019-05-18T13:08:04.628Z,37.00
2019-05-18T13:10:32.595Z,39.40
2019-05-18T13:13:00.406Z,39.80
2019-05-18T13:15:28.337Z,40.20
2019-05-18T13:17:56.230Z,40.20
2019-05-18T13:20:24.957Z,40.00
2019-05-18T13:22:52.869Z,41.10
2019-05-18T13:25:20.951Z,41.00
2019-05-18T13:27:48.673Z,41.80
2019-05-18T13:30:19.874Z,42.40
2019-05-18T13:32:47.534Z,42.30
2019-05-18T13:35:15.519Z,42.70
2019-05-18T13:37:43.637Z,48.00
2019-05-18T13:40:14.401Z,49.80
2019-05-18T13:42:42.381Z,51.10
2019-05-18T13:45:10.831Z,51.60
2019-05-18T13:47:38.711Z,52.40
2019-05-18T13:50:07.304Z,53.80
2019-05-18T13:52:35.219Z,55.10
2019-05-18T13:55:05.008Z,56.20
2019-05-18T13:57:33.111Z,56.70
2019-05-18T14:00:00.859Z,56.40
2019-05-18T14:02:31.019Z,57.10
2019-05-18T14:04:58.715Z,58.80
2019-05-18T14:07:26.676Z,59.20
2019-05-18T14:09:54.645Z,60.70
2019-05-18T14:12:22.585Z,61.20
2019-05-18T14:14:50.577Z,59.70
2019-05-18T14:17:19.936Z,59.70
2019-05-18T14:19:47.604Z,60.20
2019-05-18T14:22:15.609Z,61.40
2019-05-18T14:24:43.675Z,59.60
2019-05-18T14:27:11.491Z,58.30
2019-05-18T14:29:39.370Z,58.40
2019-05-18T14:32:10.976Z,57.50
2019-05-18T14:34:38.069Z,57.50
2019-05-18T14:37:06.168Z,57.30
2019-05-18T14:39:34.123Z,56.80
2019-05-18T14:42:01.774Z,57.00
2019-05-18T14:44:29.534Z,57.10
2019-05-18T14:46:58.863Z,55.80
2019-05-18T14:49:26.747Z,55.40
2019-05-18T14:51:54.578Z,55.30
2019-05-18T14:54:25.472Z,54.20
2019-05-18T14:56:52.376Z,54.60
2019-05-18T14:59:20.077Z,54.00
2019-05-18T15:01:47.656Z,52.50
2019-05-18T15:04:15.385Z,52.40
2019-05-18T15:06:43.155Z,51.20
2019-05-18T15:09:11.169Z,52.50
2019-05-18T15:11:38.967Z,53.10
2019-05-18T15:14:06.924Z,53.00
2019-05-18T15:16:34.603Z,53.20
2019-05-18T15:19:02.398Z,52.90
2019-05-18T15:21:30.422Z,52.90
2019-05-18T15:23:58.125Z,53.10
2019-05-18T15:26:25.948Z,52.80
2019-05-18T15:28:53.665Z,52.60
2019-05-18T15:31:23.761Z,52.80
2019-05-18T15:33:52.448Z,53.70
2019-05-18T15:36:20.203Z,54.50
2019-05-18T15:38:51.301Z,54.90
2019-05-18T15:41:20.559Z,55.60
2019-05-18T15:43:49.441Z,56.10
2019-05-18T15:46:17.252Z,55.60
2019-05-18T15:48:44.945Z,57.00
2019-05-18T15:51:12.739Z,57.40
2019-05-18T15:53:40.513Z,57.60
2019-05-18T15:56:08.367Z,57.60
2019-05-18T15:58:36.085Z,57.80
2019-05-18T16:01:03.852Z,57.70
2019-05-18T16:03:31.613Z,56.60
2019-05-18T16:05:59.995Z,57.20
2019-05-18T16:08:27.886Z,55.70
2019-05-18T16:10:57.264Z,56.40
2019-05-18T16:13:25.101Z,56.00
2019-05-18T16:15:52.941Z,56.40
2019-05-18T16:18:22.083Z,56.70
2019-05-18T16:20:49.984Z,57.00
2019-05-18T16:23:17.814Z,57.10
2019-05-18T16:25:45.747Z,57.10
2019-05-18T16:28:13.523Z,56.50
2019-05-18T16:30:41.309Z,56.20
2019-05-18T16:33:09.151Z,56.10
2019-05-18T16:35:36.941Z,56.10
2019-05-18T16:38:05.093Z,55.40
2019-05-18T16:40:33.038Z,55.80
2019-05-18T16:43:01.655Z,55.90
2019-05-18T16:45:29.468Z,55.60
2019-05-18T16:47:57.411Z,55.60
2019-05-18T16:50:25.080Z,56.20
2019-05-18T16:52:52.816Z,56.20
2019-05-18T16:55:20.707Z,57.20
2019-05-18T16:57:50.163Z,57.00
2019-05-18T17:00:20.780Z,57.60
2019-05-18T17:02:48.476Z,57.70
2019-05-18T17:05:16.586Z,57.10
2019-05-18T17:07:48.005Z,57.00
2019-05-18T17:10:17.499Z,57.60
2019-05-18T17:12:45.574Z,57.60
2019-05-18T17:15:14.865Z,56.80
2019-05-18T17:17:42.574Z,57.10
2019-05-18T17:20:11.017Z,57.40
2019-05-18T17:22:38.837Z,57.60
2019-05-18T17:25:09.657Z,58.30
2019-05-18T17:27:39.487Z,58.50
2019-05-18T17:30:08.695Z,58.80
2019-05-18T17:32:36.692Z,59.40
2019-05-18T17:35:05.334Z,59.60
2019-05-18T17:37:34.616Z,60.10
2019-05-18T17:40:04.572Z,60.00
2019-05-18T17:42:32.408Z,60.30
2019-05-18T17:45:00.184Z,60.70
2019-05-18T17:47:29.630Z,61.30
2019-05-18T17:49:57.876Z,65.50
2019-05-18T17:52:25.690Z,67.50
2019-05-18T17:54:53.993Z,67.80
2019-05-18T17:57:22.012Z,66.70
2019-05-18T17:59:49.876Z,64.60
2019-05-18T18:02:17.598Z,64.70
2019-05-18T18:04:45.670Z,64.80
2019-05-18T18:07:13.540Z,64.90
2019-05-18T18:09:41.325Z,64.70
2019-05-18T18:12:15.194Z,65.30
2019-05-18T18:14:42.939Z,65.30
2019-05-18T18:17:12.156Z,66.70
2019-05-18T18:19:40.116Z,66.50
2019-05-18T18:22:08.076Z,66.00
2019-05-18T18:24:35.825Z,66.00
2019-05-18T18:27:24.569Z,66.40
2019-05-18T18:29:38.909Z,67.20
2019-05-18T18:32:16.806Z,67.40
2019-05-18T18:34:58.117Z,67.60
2019-05-18T18:37:26.172Z,68.90
2019-05-18T18:39:54.031Z,67.80
2019-05-18T18:42:22.281Z,67.10
2019-05-18T18:44:50.139Z,66.30
2019-05-18T18:47:18.176Z,66.20
2019-05-18T18:49:45.881Z,66.30
2019-05-18T18:52:13.696Z,65.80
2019-05-18T18:54:41.805Z,65.10
2019-05-18T18:57:09.644Z,64.60
2019-05-18T18:59:48.193Z,64.90
2019-05-18T19:02:20.148Z,65.10
2019-05-18T19:04:50.685Z,65.60
2019-05-18T19:07:18.546Z,65.90
2019-05-18T19:09:46.606Z,66.40
2019-05-18T19:12:15.146Z,66.90
2019-05-18T19:14:43.135Z,67.30
2019-05-18T19:17:11.078Z,67.30
2019-05-18T19:19:40.243Z,68.10
2019-05-18T19:22:08.214Z,68.00
2019-05-18T19:24:36.133Z,67.90
2019-05-18T19:27:04.171Z,68.10
2019-05-18T19:29:32.075Z,68.20
2019-05-18T19:32:01.994Z,68.30
2019-05-18T19:34:33.545Z,69.40
2019-05-18T19:37:01.628Z,70.60
2019-05-18T19:39:29.427Z,72.90
2019-05-18T19:41:57.260Z,73.90
2019-05-18T19:44:28.462Z,75.50
2019-05-18T19:46:57.765Z,75.40
2019-05-18T19:49:25.504Z,76.70
2019-05-18T19:51:53.464Z,77.90
2019-05-18T19:54:23.539Z,79.20
2019-05-18T19:56:51.425Z,78.50
2019-05-18T19:59:19.787Z,80.60
2019-05-18T20:01:47.636Z,83.50
2019-05-18T20:04:15.368Z,84.60
2019-05-18T20:06:46.016Z,82.90
2019-05-18T20:09:13.689Z,85.00
2019-05-18T20:11:41.541Z,85.20
2019-05-18T20:14:09.372Z,83.90
2019-05-18T20:16:37.149Z,85.90
2019-05-18T20:19:05.686Z,87.20
2019-05-18T20:21:33.572Z,87.70
2019-05-18T20:24:01.349Z,87.10
2019-05-18T20:26:29.081Z,88.20
2019-05-18T20:28:57.505Z,88.70
2019-05-18T20:31:25.547Z,87.70
2019-05-18T20:33:53.480Z,86.80
2019-05-18T20:36:21.222Z,87.50
2019-05-18T20:38:52.266Z,88.10
2019-05-18T20:41:20.254Z,87.80
2019-05-18T20:43:48.211Z,86.70
2019-05-18T20:46:16.188Z,86.90
2019-05-18T20:48:43.964Z,85.60
2019-05-18T20:51:14.040Z,85.90
2019-05-18T20:53:41.930Z,86.50
2019-05-18T20:56:09.745Z,86.90
2019-05-18T20:58:40.570Z,86.70
2019-05-18T21:01:07.012Z,87.10
2019-05-18T21:03:34.779Z,86.00
2019-05-18T21:06:04.722Z,86.30
2019-05-18T21:08:32.623Z,87.20
2019-05-18T21:11:00.473Z,89.60
2019-05-18T21:13:28.189Z,90.20
2019-05-18T21:15:59.369Z,89.80
2019-05-18T21:18:27.318Z,89.00
2019-05-18T21:20:56.269Z,88.60
2019-05-18T21:23:24.248Z,88.60
2019-05-18T21:25:52.198Z,88.90
2019-05-18T21:28:19.866Z,89.20
2019-05-18T21:30:47.689Z,89.80
2019-05-18T21:33:15.675Z,88.90
2019-05-18T21:35:43.514Z,88.40
2019-05-18T21:38:11.295Z,88.00
2019-05-18T21:40:39.103Z,87.70
2019-05-18T21:43:06.881Z,87.90
2019-05-18T21:45:34.673Z,87.80
2019-05-18T21:48:02.569Z,87.80
2019-05-18T21:50:30.419Z,88.50
2019-05-18T21:52:58.258Z,90.00
2019-05-18T21:55:25.944Z,90.00
2019-05-18T21:57:53.683Z,90.10
2019-05-18T22:00:22.001Z,90.30
2019-05-18T22:02:51.938Z,90.40
2019-05-18T22:05:19.839Z,90.60
2019-05-18T22:07:47.723Z,90.90
2019-05-18T22:10:25.305Z,91.20
2019-05-18T22:12:45.285Z,91.30
2019-05-18T22:15:13.642Z,91.30
2019-05-18T22:18:00.057Z,91.60
2019-05-18T22:20:27.941Z,91.60
2019-05-18T22:22:55.743Z,91.80
2019-05-18T22:25:23.460Z,91.80
2019-05-18T22:27:51.282Z,91.80
2019-05-18T22:30:19.186Z,92.10
2019-05-18T22:32:48.163Z,92.10
2019-05-18T22:35:16.007Z,92.20
2019-05-18T22:37:43.597Z,92.10
2019-05-18T22:40:11.379Z,92.40
2019-05-18T22:42:39.778Z,93.00
2019-05-18T22:45:07.507Z,92.80
2019-05-18T22:47:38.443Z,92.80
2019-05-18T22:50:05.012Z,93.00
2019-05-18T22:52:32.813Z,92.90
2019-05-18T22:55:00.717Z,92.90
2019-05-18T22:57:36.908Z,93.00
2019-05-18T23:00:05.268Z,93.60
2019-05-18T23:02:34.877Z,93.40
2019-05-18T23:05:02.873Z,93.80
2019-05-18T23:07:31.916Z,93.80
2019-05-18T23:09:59.653Z,93.90
2019-05-18T23:12:27.352Z,93.90
2019-05-18T23:14:55.044Z,93.70
2019-05-18T23:17:22.929Z,93.40
2019-05-18T23:19:50.615Z,93.90
2019-05-18T23:22:18.408Z,94.00
2019-05-18T23:24:49.256Z,94.20
2019-05-18T23:27:16.915Z,94.20
2019-05-18T23:29:44.777Z,94.20
2019-05-18T23:32:13.822Z,94.30
2019-05-18T23:34:41.656Z,94.40
2019-05-18T23:37:09.571Z,94.30
2019-05-18T23:39:37.605Z,94.10
2019-05-18T23:42:05.414Z,94.40
2019-05-18T23:44:36.218Z,94.90
2019-05-18T23:47:04.192Z,95.30
2019-05-18T23:49:31.924Z,95.10
2019-05-18T23:51:59.817Z,95.40
2019-05-18T23:54:27.480Z,95.80
2019-05-18T23:56:55.242Z,95.30
2019-05-18T23:59:22.919Z,95.30
